sensor_id;sensor_type;location;lat;lon;timestamp;pressure;altitude;pressure_sealevel;temperature;humidity
61345;BME280;47216;42.656;23.232;2023-04-04T00:00:35;92434.09;;;8.47;82.59
61345;BME280;47216;42.656;23.232;2023-04-04T00:03:02;92428.09;;;8.52;81.78
61345;BME280;47216;42.656;23.232;2023-04-04T00:05:29;92427.56;;;8.50;82.36
61345;BME280;47216;42.656;23.232;2023-04-04T00:07:57;92427.06;;;8.53;82.03
61345;BME280;47216;42.656;23.232;2023-04-04T00:10:25;92435.78;;;8.67;82.35
61345;BME280;47216;42.656;23.232;2023-04-04T00:12:52;92422.81;;;8.67;81.81
61345;BME280;47216;42.656;23.232;2023-04-04T00:15:19;92418.88;;;8.70;82.29
61345;BME280;47216;42.656;23.232;2023-04-04T00:17:46;92423.06;;;8.66;81.49
61345;BME280;47216;42.656;23.232;2023-04-04T00:20:13;92421.34;;;8.46;79.82
61345;BME280;47216;42.656;23.232;2023-04-04T00:22:40;92413.88;;;8.34;80.48
61345;BME280;47216;42.656;23.232;2023-04-04T00:25:07;92419.81;;;8.45;80.23
61345;BME280;47216;42.656;23.232;2023-04-04T00:27:36;92424.47;;;8.53;80.09
61345;BME280;47216;42.656;23.232;2023-04-04T00:30:04;92402.66;;;8.49;80.09
61345;BME280;47216;42.656;23.232;2023-04-04T00:32:31;92420.34;;;8.47;80.20
61345;BME280;47216;42.656;23.232;2023-04-04T00:34:58;92413.81;;;8.49;80.03
61345;BME280;47216;42.656;23.232;2023-04-04T00:37:24;92412.06;;;8.34;79.81
61345;BME280;47216;42.656;23.232;2023-04-04T00:39:52;92412.00;;;8.50;79.52
61345;BME280;47216;42.656;23.232;2023-04-04T00:42:19;92411.22;;;8.49;80.15
61345;BME280;47216;42.656;23.232;2023-04-04T00:44:47;92414.38;;;8.36;80.49
61345;BME280;47216;42.656;23.232;2023-04-04T00:47:14;92418.28;;;8.33;80.61
61345;BME280;47216;42.656;23.232;2023-04-04T00:49:41;92409.97;;;8.41;80.05
61345;BME280;47216;42.656;23.232;2023-04-04T00:52:07;92419.28;;;8.48;80.10
61345;BME280;47216;42.656;23.232;2023-04-04T00:54:35;92416.66;;;8.53;80.58
61345;BME280;47216;42.656;23.232;2023-04-04T00:57:03;92422.84;;;8.57;80.11
61345;BME280;47216;42.656;23.232;2023-04-04T00:59:32;92420.25;;;8.62;79.88
61345;BME280;47216;42.656;23.232;2023-04-04T01:02:01;92426.97;;;8.63;80.21
61345;BME280;47216;42.656;23.232;2023-04-04T01:04:29;92438.31;;;8.77;79.92
61345;BME280;47216;42.656;23.232;2023-04-04T01:06:56;92423.81;;;8.71;79.82
61345;BME280;47216;42.656;23.232;2023-04-04T01:09:23;92451.25;;;8.82;79.72
61345;BME280;47216;42.656;23.232;2023-04-04T01:11:51;92462.63;;;8.92;79.45
61345;BME280;47216;42.656;23.232;2023-04-04T01:14:19;92445.06;;;8.78;80.06
61345;BME280;47216;42.656;23.232;2023-04-04T01:16:46;92458.03;;;8.83;79.11
61345;BME280;47216;42.656;23.232;2023-04-04T01:19:19;92444.53;;;8.81;79.33
61345;BME280;47216;42.656;23.232;2023-04-04T01:21:48;92447.03;;;8.97;79.35
61345;BME280;47216;42.656;23.232;2023-04-04T01:24:16;92433.53;;;8.95;79.62
61345;BME280;47216;42.656;23.232;2023-04-04T01:26:45;92444.38;;;9.02;79.48
61345;BME280;47216;42.656;23.232;2023-04-04T01:29:12;92439.66;;;9.09;79.95
61345;BME280;47216;42.656;23.232;2023-04-04T01:31:41;92434.34;;;9.19;78.80
61345;BME280;47216;42.656;23.232;2023-04-04T01:34:11;92430.94;;;9.24;78.87
61345;BME280;47216;42.656;23.232;2023-04-04T01:36:47;92440.28;;;9.25;79.04
61345;BME280;47216;42.656;23.232;2023-04-04T01:39:22;92436.63;;;9.31;78.35
61345;BME280;47216;42.656;23.232;2023-04-04T01:41:51;92429.03;;;9.35;78.56
61345;BME280;47216;42.656;23.232;2023-04-04T01:44:20;92435.19;;;9.44;78.59
61345;BME280;47216;42.656;23.232;2023-04-04T01:46:51;92417.47;;;9.46;78.07
61345;BME280;47216;42.656;23.232;2023-04-04T01:49:19;92406.56;;;9.44;77.61
61345;BME280;47216;42.656;23.232;2023-04-04T01:51:46;92406.63;;;9.39;77.81
61345;BME280;47216;42.656;23.232;2023-04-04T01:54:14;92405.09;;;9.33;77.89
61345;BME280;47216;42.656;23.232;2023-04-04T01:56:43;92399.41;;;9.31;77.86
61345;BME280;47216;42.656;23.232;2023-04-04T01:59:12;92402.66;;;9.17;77.92
61345;BME280;47216;42.656;23.232;2023-04-04T02:01:38;92401.41;;;9.10;77.53
61345;BME280;47216;42.656;23.232;2023-04-04T02:04:05;92399.81;;;9.14;77.51
61345;BME280;47216;42.656;23.232;2023-04-04T02:06:32;92402.19;;;9.10;78.29
61345;BME280;47216;42.656;23.232;2023-04-04T02:08:59;92394.66;;;9.09;78.00
61345;BME280;47216;42.656;23.232;2023-04-04T02:11:26;92392.59;;;9.05;78.97
61345;BME280;47216;42.656;23.232;2023-04-04T02:13:53;92390.50;;;9.08;78.29
61345;BME280;47216;42.656;23.232;2023-04-04T02:16:21;92399.81;;;9.14;78.23
61345;BME280;47216;42.656;23.232;2023-04-04T02:18:48;92398.50;;;9.16;78.07
61345;BME280;47216;42.656;23.232;2023-04-04T02:21:15;92391.19;;;9.18;78.44
61345;BME280;47216;42.656;23.232;2023-04-04T02:23:42;92397.94;;;9.19;77.64
61345;BME280;47216;42.656;23.232;2023-04-04T02:26:08;92384.31;;;9.03;78.13
61345;BME280;47216;42.656;23.232;2023-04-04T02:28:35;92399.19;;;8.98;78.43
61345;BME280;47216;42.656;23.232;2023-04-04T02:31:02;92397.84;;;9.00;78.46
61345;BME280;47216;42.656;23.232;2023-04-04T02:33:30;92391.38;;;8.98;78.07
61345;BME280;47216;42.656;23.232;2023-04-04T02:35:57;92393.22;;;8.97;77.38
61345;BME280;47216;42.656;23.232;2023-04-04T02:38:24;92393.06;;;8.83;78.31
61345;BME280;47216;42.656;23.232;2023-04-04T02:40:51;92394.63;;;8.79;77.75
61345;BME280;47216;42.656;23.232;2023-04-04T02:43:18;92397.19;;;8.84;78.19
61345;BME280;47216;42.656;23.232;2023-04-04T02:45:46;92394.09;;;8.82;78.38
61345;BME280;47216;42.656;23.232;2023-04-04T02:48:13;92402.19;;;8.81;78.32
61345;BME280;47216;42.656;23.232;2023-04-04T02:50:42;92397.25;;;8.79;78.42
61345;BME280;47216;42.656;23.232;2023-04-04T02:53:09;92398.00;;;8.85;78.31
61345;BME280;47216;42.656;23.232;2023-04-04T02:55:36;92400.34;;;8.81;78.79
61345;BME280;47216;42.656;23.232;2023-04-04T02:58:02;92414.63;;;8.84;78.82
61345;BME280;47216;42.656;23.232;2023-04-04T03:00:29;92412.53;;;8.86;78.87
61345;BME280;47216;42.656;23.232;2023-04-04T03:02:56;92416.66;;;8.87;78.29
61345;BME280;47216;42.656;23.232;2023-04-04T03:05:24;92410.19;;;8.90;77.98
61345;BME280;47216;42.656;23.232;2023-04-04T03:07:53;92413.22;;;8.97;78.34
61345;BME280;47216;42.656;23.232;2023-04-04T03:10:21;92416.59;;;8.97;77.88
61345;BME280;47216;42.656;23.232;2023-04-04T03:12:48;92423.16;;;8.90;78.16
61345;BME280;47216;42.656;23.232;2023-04-04T03:15:16;92425.00;;;8.84;77.57
61345;BME280;47216;42.656;23.232;2023-04-04T03:17:43;92421.69;;;8.73;78.71
61345;BME280;47216;42.656;23.232;2023-04-04T03:20:12;92427.16;;;8.77;78.53
61345;BME280;47216;42.656;23.232;2023-04-04T03:22:39;92410.28;;;8.74;77.71
61345;BME280;47216;42.656;23.232;2023-04-04T03:25:08;92415.97;;;8.76;78.19
61345;BME280;47216;42.656;23.232;2023-04-04T03:27:35;92421.19;;;8.76;78.79
61345;BME280;47216;42.656;23.232;2023-04-04T03:30:05;92418.84;;;8.75;78.99
61345;BME280;47216;42.656;23.232;2023-04-04T03:32:32;92425.59;;;8.76;78.08
61345;BME280;47216;42.656;23.232;2023-04-04T03:34:59;92427.16;;;8.77;78.65
61345;BME280;47216;42.656;23.232;2023-04-04T03:37:26;92424.81;;;8.75;79.03
61345;BME280;47216;42.656;23.232;2023-04-04T03:39:54;92428.44;;;8.79;77.97
61345;BME280;47216;42.656;23.232;2023-04-04T03:42:22;92422.16;;;8.86;78.60
61345;BME280;47216;42.656;23.232;2023-04-04T03:44:50;92422.66;;;8.88;78.50
61345;BME280;47216;42.656;23.232;2023-04-04T03:47:17;92424.19;;;8.89;78.58
61345;BME280;47216;42.656;23.232;2023-04-04T03:49:44;92423.16;;;8.90;78.48
61345;BME280;47216;42.656;23.232;2023-04-04T03:52:11;92419.00;;;8.89;78.28
61345;BME280;47216;42.656;23.232;2023-04-04T03:54:38;92429.91;;;8.91;78.63
61345;BME280;47216;42.656;23.232;2023-04-04T03:57:06;92428.31;;;8.95;78.41
61345;BME280;47216;42.656;23.232;2023-04-04T03:59:34;92423.13;;;8.95;78.08
61345;BME280;47216;42.656;23.232;2023-04-04T04:02:00;92431.44;;;8.97;78.29
61345;BME280;47216;42.656;23.232;2023-04-04T04:04:27;92422.06;;;8.96;78.25
61345;BME280;47216;42.656;23.232;2023-04-04T04:06:54;92422.53;;;9.03;77.93
61345;BME280;47216;42.656;23.232;2023-04-04T04:09:21;92416.28;;;9.04;77.66
61345;BME280;47216;42.656;23.232;2023-04-04T04:11:48;92431.94;;;8.99;77.75
61345;BME280;47216;42.656;23.232;2023-04-04T04:14:15;92424.91;;;8.99;77.66
61345;BME280;47216;42.656;23.232;2023-04-04T04:16:43;92423.13;;;8.95;77.87
61345;BME280;47216;42.656;23.232;2023-04-04T04:19:10;92421.03;;;8.97;78.37
61345;BME280;47216;42.656;23.232;2023-04-04T04:21:37;92423.13;;;8.95;78.62
61345;BME280;47216;42.656;23.232;2023-04-04T04:24:04;92438.94;;;8.98;78.00
61345;BME280;47216;42.656;23.232;2023-04-04T04:26:31;92432.97;;;8.98;77.88
61345;BME280;47216;42.656;23.232;2023-04-04T04:28:58;92436.16;;;8.90;78.55
61345;BME280;47216;42.656;23.232;2023-04-04T04:31:25;92435.66;;;8.88;78.37
61345;BME280;47216;42.656;23.232;2023-04-04T04:33:53;92442.34;;;8.99;78.28
61345;BME280;47216;42.656;23.232;2023-04-04T04:36:20;92439.69;;;9.04;78.24
61345;BME280;47216;42.656;23.232;2023-04-04T04:38:47;92443.84;;;9.05;78.61
61345;BME280;47216;42.656;23.232;2023-04-04T04:41:13;92445.84;;;9.13;78.62
61345;BME280;47216;42.656;23.232;2023-04-04T04:43:40;92455.50;;;9.13;78.19
61345;BME280;47216;42.656;23.232;2023-04-04T04:46:07;92458.91;;;9.08;78.39
61345;BME280;47216;42.656;23.232;2023-04-04T04:48:34;92465.69;;;9.04;78.57
61345;BME280;47216;42.656;23.232;2023-04-04T04:51:02;92459.97;;;9.02;78.24
61345;BME280;47216;42.656;23.232;2023-04-04T04:53:30;92472.94;;;9.07;78.77
61345;BME280;47216;42.656;23.232;2023-04-04T04:55:57;92474.25;;;9.04;78.45
61345;BME280;47216;42.656;23.232;2023-04-04T04:58:24;92474.78;;;9.07;77.80
61345;BME280;47216;42.656;23.232;2023-04-04T05:00:54;92481.34;;;8.99;77.94
61345;BME280;47216;42.656;23.232;2023-04-04T05:03:21;92469.97;;;8.84;78.77
61345;BME280;47216;42.656;23.232;2023-04-04T05:05:48;92469.44;;;8.88;79.23
61345;BME280;47216;42.656;23.232;2023-04-04T05:08:16;92473.16;;;8.76;79.64
61345;BME280;47216;42.656;23.232;2023-04-04T05:10:43;92475.22;;;8.79;79.54
61345;BME280;47216;42.656;23.232;2023-04-04T05:13:10;92474.41;;;8.84;80.20
61345;BME280;47216;42.656;23.232;2023-04-04T05:15:38;92478.22;;;8.97;79.47
61345;BME280;47216;42.656;23.232;2023-04-04T05:18:05;92490.09;;;9.08;79.93
61345;BME280;47216;42.656;23.232;2023-04-04T05:20:32;92478.38;;;9.11;79.60
61345;BME280;47216;42.656;23.232;2023-04-04T05:22:58;92486.34;;;9.19;79.81
61345;BME280;47216;42.656;23.232;2023-04-04T05:25:27;92488.44;;;9.22;79.46
61345;BME280;47216;42.656;23.232;2023-04-04T05:27:53;92494.56;;;9.37;79.43
61345;BME280;47216;42.656;23.232;2023-04-04T05:30:22;92492.19;;;9.40;78.84
61345;BME280;47216;42.656;23.232;2023-04-04T05:32:50;92491.34;;;9.45;78.84
61345;BME280;47216;42.656;23.232;2023-04-04T05:35:17;92492.91;;;9.46;78.30
61345;BME280;47216;42.656;23.232;2023-04-04T05:37:44;92493.97;;;9.45;77.45
61345;BME280;47216;42.656;23.232;2023-04-04T05:40:10;92498.63;;;9.48;77.17
61345;BME280;47216;42.656;23.232;2023-04-04T05:42:39;92499.66;;;9.52;77.54
61345;BME280;47216;42.656;23.232;2023-04-04T05:45:08;92498.06;;;9.51;77.60
61345;BME280;47216;42.656;23.232;2023-04-04T05:47:35;92503.41;;;9.65;76.69
61345;BME280;47216;42.656;23.232;2023-04-04T05:50:02;92503.38;;;9.70;77.17
61345;BME280;47216;42.656;23.232;2023-04-04T05:52:30;92505.19;;;9.70;77.13
61345;BME280;47216;42.656;23.232;2023-04-04T05:54:57;92513.13;;;9.54;76.72
61345;BME280;47216;42.656;23.232;2023-04-04T05:57:24;92515.25;;;9.52;76.97
61345;BME280;47216;42.656;23.232;2023-04-04T05:59:52;92513.63;;;9.61;78.01
61345;BME280;47216;42.656;23.232;2023-04-04T06:02:19;92509.13;;;9.67;77.70
61345;BME280;47216;42.656;23.232;2023-04-04T06:04:46;92508.25;;;9.77;77.84
61345;BME280;47216;42.656;23.232;2023-04-04T06:07:13;92504.31;;;9.79;77.87
61345;BME280;47216;42.656;23.232;2023-04-04T06:09:40;92506.53;;;9.67;77.14
61345;BME280;47216;42.656;23.232;2023-04-04T06:12:07;92512.28;;;9.64;77.11
61345;BME280;47216;42.656;23.232;2023-04-04T06:14:34;92520.34;;;9.62;77.74
61345;BME280;47216;42.656;23.232;2023-04-04T06:17:03;92518.25;;;9.64;76.55
61345;BME280;47216;42.656;23.232;2023-04-04T06:19:30;92524.19;;;9.70;76.94
61345;BME280;47216;42.656;23.232;2023-04-04T06:21:57;92535.34;;;9.76;77.06
61345;BME280;47216;42.656;23.232;2023-04-04T06:24:24;92534.47;;;9.85;76.58
61345;BME280;47216;42.656;23.232;2023-04-04T06:26:51;92530.78;;;9.92;75.94
61345;BME280;47216;42.656;23.232;2023-04-04T06:29:18;92528.56;;;9.75;75.73
61345;BME280;47216;42.656;23.232;2023-04-04T06:31:46;92533.78;;;9.75;76.54
61345;BME280;47216;42.656;23.232;2023-04-04T06:34:14;92530.09;;;9.81;76.33
61345;BME280;47216;42.656;23.232;2023-04-04T06:36:41;92541.69;;;9.94;77.03
61345;BME280;47216;42.656;23.232;2023-04-04T06:39:08;92547.56;;;10.04;76.48
61345;BME280;47216;42.656;23.232;2023-04-04T06:41:34;92552.13;;;9.88;75.38
61345;BME280;47216;42.656;23.232;2023-04-04T06:44:01;92563.00;;;9.66;74.55
61345;BME280;47216;42.656;23.232;2023-04-04T06:46:28;92561.44;;;9.65;74.83
61345;BME280;47216;42.656;23.232;2023-04-04T06:48:56;92562.09;;;9.52;74.36
61345;BME280;47216;42.656;23.232;2023-04-04T06:51:24;92564.13;;;9.21;73.87
61345;BME280;47216;42.656;23.232;2023-04-04T06:53:51;92569.66;;;9.09;74.77
61345;BME280;47216;42.656;23.232;2023-04-04T06:56:18;92578.59;;;8.93;74.63
61345;BME280;47216;42.656;23.232;2023-04-04T06:58:45;92589.59;;;8.74;73.86
61345;BME280;47216;42.656;23.232;2023-04-04T07:01:12;92587.59;;;8.56;72.95
61345;BME280;47216;42.656;23.232;2023-04-04T07:03:39;92591.25;;;8.45;73.89
61345;BME280;47216;42.656;23.232;2023-04-04T07:06:08;92596.44;;;8.39;74.77
61345;BME280;47216;42.656;23.232;2023-04-04T07:08:38;92611.00;;;8.20;74.50
61345;BME280;47216;42.656;23.232;2023-04-04T07:11:05;92603.00;;;8.11;74.17
61345;BME280;47216;42.656;23.232;2023-04-04T07:13:32;92627.13;;;8.27;74.60
61345;BME280;47216;42.656;23.232;2023-04-04T07:15:59;92637.50;;;8.32;74.61
61345;BME280;47216;42.656;23.232;2023-04-04T07:18:27;92646.59;;;8.40;74.46
61345;BME280;47216;42.656;23.232;2023-04-04T07:20:53;92655.66;;;8.53;74.18
61345;BME280;47216;42.656;23.232;2023-04-04T07:23:20;92654.59;;;8.59;74.26
61345;BME280;47216;42.656;23.232;2023-04-04T07:25:48;92668.09;;;8.61;72.95
61345;BME280;47216;42.656;23.232;2023-04-04T07:28:15;92681.13;;;8.51;73.32
61345;BME280;47216;42.656;23.232;2023-04-04T07:30:42;92692.53;;;8.55;72.47
61345;BME280;47216;42.656;23.232;2023-04-04T07:33:08;92693.06;;;8.57;71.38
61345;BME280;47216;42.656;23.232;2023-04-04T07:35:35;92693.06;;;8.47;70.17
61345;BME280;47216;42.656;23.232;2023-04-04T07:38:02;92695.66;;;8.31;69.83
61345;BME280;47216;42.656;23.232;2023-04-04T07:40:30;92699.56;;;8.24;70.11
61345;BME280;47216;42.656;23.232;2023-04-04T07:42:58;92706.59;;;7.97;68.28
61345;BME280;47216;42.656;23.232;2023-04-04T07:45:25;92708.66;;;7.90;69.64
61345;BME280;47216;42.656;23.232;2023-04-04T07:47:52;92706.84;;;8.01;69.99
61345;BME280;47216;42.656;23.232;2023-04-04T07:50:19;92718.00;;;8.12;70.99
61345;BME280;47216;42.656;23.232;2023-04-04T07:52:48;92724.25;;;8.16;70.56
61345;BME280;47216;42.656;23.232;2023-04-04T07:55:16;92725.25;;;8.15;69.98
61345;BME280;47216;42.656;23.232;2023-04-04T07:57:44;92730.44;;;8.20;70.39
61345;BME280;47216;42.656;23.232;2023-04-04T08:00:13;92739.28;;;8.19;68.22
61345;BME280;47216;42.656;23.232;2023-04-04T08:02:42;92741.09;;;7.93;67.33
61345;BME280;47216;42.656;23.232;2023-04-04T08:05:09;92742.38;;;7.75;67.80
61345;BME280;47216;42.656;23.232;2023-04-04T08:07:36;92747.03;;;7.73;68.82
61345;BME280;47216;42.656;23.232;2023-04-04T08:10:04;92747.81;;;7.73;68.70
61345;BME280;47216;42.656;23.232;2023-04-04T08:12:31;92756.59;;;7.62;68.50
61345;BME280;47216;42.656;23.232;2023-04-04T08:14:58;92756.88;;;7.66;68.51
61345;BME280;47216;42.656;23.232;2023-04-04T08:17:26;92760.78;;;7.68;67.75
61345;BME280;47216;42.656;23.232;2023-04-04T08:19:53;92749.63;;;7.68;67.98
61345;BME280;47216;42.656;23.232;2023-04-04T08:22:20;92774.03;;;7.82;68.44
61345;BME280;47216;42.656;23.232;2023-04-04T08:24:47;92772.22;;;7.88;68.12
61345;BME280;47216;42.656;23.232;2023-04-04T08:27:14;92779.00;;;7.94;68.36
61345;BME280;47216;42.656;23.232;2023-04-04T08:29:41;92776.38;;;7.89;69.14
61345;BME280;47216;42.656;23.232;2023-04-04T08:32:09;92789.84;;;7.81;66.19
61345;BME280;47216;42.656;23.232;2023-04-04T08:34:38;92785.44;;;7.76;67.07
61345;BME280;47216;42.656;23.232;2023-04-04T08:37:05;92782.34;;;7.79;67.25
61345;BME280;47216;42.656;23.232;2023-04-04T08:39:31;92788.59;;;7.88;67.71
61345;BME280;47216;42.656;23.232;2023-04-04T08:42:01;92796.91;;;7.95;66.65
61345;BME280;47216;42.656;23.232;2023-04-04T08:44:30;92798.34;;;7.55;65.38
61345;BME280;47216;42.656;23.232;2023-04-04T08:46:58;92796.66;;;7.24;65.97
61345;BME280;47216;42.656;23.232;2023-04-04T08:49:27;92802.41;;;6.88;66.81
61345;BME280;47216;42.656;23.232;2023-04-04T08:51:57;92796.41;;;6.78;68.30
61345;BME280;47216;42.656;23.232;2023-04-04T08:54:25;92807.38;;;6.95;68.43
61345;BME280;47216;42.656;23.232;2023-04-04T08:56:54;92819.56;;;6.94;67.98
61345;BME280;47216;42.656;23.232;2023-04-04T08:59:21;92811.94;;;6.72;67.67
61345;BME280;47216;42.656;23.232;2023-04-04T09:01:48;92816.94;;;6.52;68.57
61345;BME280;47216;42.656;23.232;2023-04-04T09:04:18;92822.44;;;6.61;68.23
61345;BME280;47216;42.656;23.232;2023-04-04T09:06:46;92828.31;;;6.51;67.92
61345;BME280;47216;42.656;23.232;2023-04-04T09:09:15;92826.25;;;6.48;67.75
61345;BME280;47216;42.656;23.232;2023-04-04T09:11:43;92826.56;;;6.57;67.67
61345;BME280;47216;42.656;23.232;2023-04-04T09:14:11;92823.50;;;6.32;67.26
61345;BME280;47216;42.656;23.232;2023-04-04T09:16:38;92831.91;;;6.13;67.76
61345;BME280;47216;42.656;23.232;2023-04-04T09:19:05;92824.88;;;6.08;68.96
61345;BME280;47216;42.656;23.232;2023-04-04T09:21:32;92820.22;;;6.10;69.22
61345;BME280;47216;42.656;23.232;2023-04-04T09:23:59;92817.22;;;6.23;69.21
61345;BME280;47216;42.656;23.232;2023-04-04T09:26:29;92826.44;;;6.41;68.92
61345;BME280;47216;42.656;23.232;2023-04-04T09:29:11;92818.84;;;6.29;68.45
61345;BME280;47216;42.656;23.232;2023-04-04T09:31:40;92822.56;;;6.44;68.02
61345;BME280;47216;42.656;23.232;2023-04-04T09:34:11;92826.59;;;6.62;67.85
61345;BME280;47216;42.656;23.232;2023-04-04T09:36:39;92831.84;;;6.72;68.37
61345;BME280;47216;42.656;23.232;2023-04-04T09:39:06;92835.28;;;6.78;68.17
61345;BME280;47216;42.656;23.232;2023-04-04T09:41:36;92833.69;;;6.77;66.68
61345;BME280;47216;42.656;23.232;2023-04-04T09:44:04;92845.44;;;6.89;67.00
61345;BME280;47216;42.656;23.232;2023-04-04T09:46:31;92844.16;;;6.87;67.27
61345;BME280;47216;42.656;23.232;2023-04-04T09:49:00;92843.00;;;6.72;66.21
61345;BME280;47216;42.656;23.232;2023-04-04T09:51:33;92846.19;;;6.85;65.71
61345;BME280;47216;42.656;23.232;2023-04-04T09:54:01;92848.81;;;6.90;66.64
61345;BME280;47216;42.656;23.232;2023-04-04T09:56:28;92842.13;;;6.94;65.84
61345;BME280;47216;42.656;23.232;2023-04-04T09:58:58;92854.84;;;7.01;66.08
61345;BME280;47216;42.656;23.232;2023-04-04T10:01:27;92845.28;;;7.01;65.61
61345;BME280;47216;42.656;23.232;2023-04-04T10:03:54;92850.50;;;7.11;64.93
61345;BME280;47216;42.656;23.232;2023-04-04T10:06:23;92847.84;;;6.96;63.67
61345;BME280;47216;42.656;23.232;2023-04-04T10:08:50;92849.03;;;6.83;64.93
61345;BME280;47216;42.656;23.232;2023-04-04T10:11:27;92835.28;;;6.78;64.70
61345;BME280;47216;42.656;23.232;2023-04-04T10:13:56;92851.78;;;6.71;65.45
61345;BME280;47216;42.656;23.232;2023-04-04T10:16:25;92856.63;;;6.30;63.92
61345;BME280;47216;42.656;23.232;2023-04-04T10:18:52;92860.25;;;6.29;65.36
61345;BME280;47216;42.656;23.232;2023-04-04T10:21:19;92855.25;;;6.50;65.51
61345;BME280;47216;42.656;23.232;2023-04-04T10:23:47;92861.59;;;6.64;65.92
61345;BME280;47216;42.656;23.232;2023-04-04T10:26:14;92870.69;;;6.40;63.57
61345;BME280;47216;42.656;23.232;2023-04-04T10:28:42;92858.78;;;6.39;64.45
61345;BME280;47216;42.656;23.232;2023-04-04T10:31:15;92873.81;;;6.42;65.17
61345;BME280;47216;42.656;23.232;2023-04-04T10:33:52;92871.28;;;6.47;64.31
61345;BME280;47216;42.656;23.232;2023-04-04T10:36:23;92879.72;;;6.37;64.94
61345;BME280;47216;42.656;23.232;2023-04-04T10:39:02;92876.81;;;6.28;65.44
61345;BME280;47216;42.656;23.232;2023-04-04T10:41:31;92883.47;;;6.19;64.67
61345;BME280;47216;42.656;23.232;2023-04-04T10:44:01;92889.16;;;6.21;64.93
61345;BME280;47216;42.656;23.232;2023-04-04T10:46:36;92888.19;;;6.27;64.59
61345;BME280;47216;42.656;23.232;2023-04-04T10:49:09;92887.03;;;6.13;64.73
61345;BME280;47216;42.656;23.232;2023-04-04T10:51:36;92885.69;;;6.10;65.14
61345;BME280;47216;42.656;23.232;2023-04-04T10:54:04;92900.44;;;6.10;64.63
61345;BME280;47216;42.656;23.232;2023-04-04T10:56:32;92897.47;;;5.79;64.31
61345;BME280;47216;42.656;23.232;2023-04-04T10:59:11;92906.88;;;5.85;65.11
61345;BME280;47216;42.656;23.232;2023-04-04T11:01:48;92903.69;;;6.00;64.98
61345;BME280;47216;42.656;23.232;2023-04-04T11:04:18;92901.69;;;5.85;64.64
61345;BME280;47216;42.656;23.232;2023-04-04T11:07:10;92915.81;;;5.95;64.85
61345;BME280;47216;42.656;23.232;2023-04-04T11:10:02;92900.41;;;5.66;64.81
61345;BME280;47216;42.656;23.232;2023-04-04T11:12:42;92909.31;;;5.75;66.58
61345;BME280;47216;42.656;23.232;2023-04-04T11:15:12;92912.72;;;5.98;65.78
61345;BME280;47216;42.656;23.232;2023-04-04T11:20:32;92905.88;;;6.08;64.87
61345;BME280;47216;42.656;23.232;2023-04-04T11:23:08;92924.44;;;6.27;65.78
61345;BME280;47216;42.656;23.232;2023-04-04T11:25:39;92928.94;;;6.37;65.44
61345;BME280;47216;42.656;23.232;2023-04-04T11:28:13;92934.41;;;6.41;64.54
61345;BME280;47216;42.656;23.232;2023-04-04T11:30:42;92934.03;;;6.54;64.13
61345;BME280;47216;42.656;23.232;2023-04-04T11:33:26;92927.50;;;6.51;63.34
61345;BME280;47216;42.656;23.232;2023-04-04T11:35:58;92931.28;;;6.39;63.05
61345;BME280;47216;42.656;23.232;2023-04-04T11:38:30;92939.00;;;6.34;63.32
61345;BME280;47216;42.656;23.232;2023-04-04T11:40:57;92941.59;;;6.12;63.68
61345;BME280;47216;42.656;23.232;2023-04-04T11:43:25;92943.13;;;5.90;64.21
61345;BME280;47216;42.656;23.232;2023-04-04T11:45:53;92936.97;;;5.92;63.85
61345;BME280;47216;42.656;23.232;2023-04-04T11:48:31;92944.38;;;5.66;64.40
61345;BME280;47216;42.656;23.232;2023-04-04T11:51:00;92946.63;;;5.40;64.32
61345;BME280;47216;42.656;23.232;2023-04-04T11:53:30;92942.31;;;5.29;65.00
61345;BME280;47216;42.656;23.232;2023-04-04T11:55:57;92943.28;;;5.23;66.49
61345;BME280;47216;42.656;23.232;2023-04-04T11:58:25;92947.25;;;5.31;65.86
61345;BME280;47216;42.656;23.232;2023-04-04T12:00:52;92943.03;;;5.41;65.58
61345;BME280;47216;42.656;23.232;2023-04-04T12:03:19;92936.75;;;5.37;64.79
61345;BME280;47216;42.656;23.232;2023-04-04T12:05:48;92942.63;;;5.50;65.29
61345;BME280;47216;42.656;23.232;2023-04-04T12:08:16;92951.47;;;5.54;65.50
61345;BME280;47216;42.656;23.232;2023-04-04T12:10:43;92945.06;;;5.39;65.82
61345;BME280;47216;42.656;23.232;2023-04-04T12:13:10;92949.03;;;5.47;66.40
61345;BME280;47216;42.656;23.232;2023-04-04T12:15:37;92947.78;;;5.50;64.58
61345;BME280;47216;42.656;23.232;2023-04-04T12:18:06;92945.06;;;5.39;65.33
61345;BME280;47216;42.656;23.232;2023-04-04T12:20:36;92952.13;;;5.27;64.83
61345;BME280;47216;42.656;23.232;2023-04-04T12:23:03;92952.31;;;5.20;66.64
61345;BME280;47216;42.656;23.232;2023-04-04T12:25:31;92945.56;;;5.36;66.96
61345;BME280;47216;42.656;23.232;2023-04-04T12:28:01;92952.59;;;5.41;65.48
61345;BME280;47216;42.656;23.232;2023-04-04T12:30:29;92945.69;;;5.46;66.00
61345;BME280;47216;42.656;23.232;2023-04-04T12:32:57;92952.50;;;5.53;64.97
61345;BME280;47216;42.656;23.232;2023-04-04T12:35:25;92952.34;;;5.59;65.44
61345;BME280;47216;42.656;23.232;2023-04-04T12:38:01;92951.75;;;5.74;64.86
61345;BME280;47216;42.656;23.232;2023-04-04T12:40:32;92952.50;;;5.75;65.04
61345;BME280;47216;42.656;23.232;2023-04-04T12:43:05;92959.50;;;5.74;64.64
61345;BME280;47216;42.656;23.232;2023-04-04T12:45:36;92957.25;;;5.61;63.67
61345;BME280;47216;42.656;23.232;2023-04-04T12:48:09;92958.84;;;5.45;64.39
61345;BME280;47216;42.656;23.232;2023-04-04T12:50:49;92960.25;;;5.53;64.70
61345;BME280;47216;42.656;23.232;2023-04-04T12:53:19;92961.50;;;5.50;64.69
61345;BME280;47216;42.656;23.232;2023-04-04T12:55:48;92959.78;;;5.56;64.57
61345;BME280;47216;42.656;23.232;2023-04-04T12:58:16;92972.16;;;5.54;64.64
61345;BME280;47216;42.656;23.232;2023-04-04T13:00:45;92975.28;;;5.56;64.34
61345;BME280;47216;42.656;23.232;2023-04-04T13:03:13;92975.53;;;5.37;64.62
61345;BME280;47216;42.656;23.232;2023-04-04T13:05:41;92994.56;;;4.97;65.70
61345;BME280;47216;42.656;23.232;2023-04-04T13:08:09;92984.81;;;4.71;65.44